sensor_id;sensor_type;location;lat;lon;timestamp;pressure;altitude;pressure_sealevel;temperature;humidity
9139;BME280;4604;48.616;9.548;2023-04-21T00:01:20;96583.25;;;4.90;100.00
9139;BME280;4604;48.616;9.548;2023-04-21T00:03:47;96585.88;;;4.90;100.00
9139;BME280;4604;48.616;9.548;2023-04-21T00:06:14;96573.25;;;4.84;100.00
9139;BME280;4604;48.616;9.548;2023-04-21T00:08:46;96576.31;;;4.78;100.00
9139;BME280;4604;48.616;9.548;2023-04-21T00:11:13;96572.88;;;4.77;100.00
9139;BME280;4604;48.616;9.548;2023-04-21T00:13:40;96556.78;;;4.70;100.00
9139;BME280;4604;48.616;9.548;2023-04-21T00:16:08;96559.88;;;4.64;100.00
9139;BME280;4604;48.616;9.548;2023-04-21T00:18:35;96559.03;;;4.64;100.00
9139;BME280;4604;48.616;9.548;2023-04-21T00:21:02;96560.94;;;4.62;100.00
9139;BME280;4604;48.616;9.548;2023-04-21T00:23:28;96551.06;;;4.65;100.00
9139;BME280;4604;48.616;9.548;2023-04-21T00:25:55;96549.19;;;4.67;100.00
9139;BME280;4604;48.616;9.548;2023-04-21T00:28:22;96552.84;;;4.65;100.00
9139;BME280;4604;48.616;9.548;2023-04-21T00:30:49;96544.19;;;4.64;100.00
9139;BME280;4604;48.616;9.548;2023-04-21T00:33:17;96529.56;;;4.62;100.00
9139;BME280;4604;48.616;9.548;2023-04-21T00:35:43;96542.31;;;4.66;100.00
9139;BME280;4604;48.616;9.548;2023-04-21T00:38:10;96540.63;;;4.65;100.00
9139;BME280;4604;48.616;9.548;2023-04-21T00:40:36;96543.94;;;4.67;100.00
9139;BME280;4604;48.616;9.548;2023-04-21T00:43:05;96538.63;;;4.69;100.00
9139;BME280;4604;48.616;9.548;2023-04-21T00:45:31;96525.50;;;4.58;100.00
9139;BME280;4604;48.616;9.548;2023-04-21T00:47:58;96542.53;;;4.63;100.00
9139;BME280;4604;48.616;9.548;2023-04-21T00:50:26;96535.63;;;4.62;100.00
9139;BME280;4604;48.616;9.548;2023-04-21T00:52:54;96538.97;;;4.64;100.00
9139;BME280;4604;48.616;9.548;2023-04-21T00:55:21;96531.84;;;4.66;100.00
9139;BME280;4604;48.616;9.548;2023-04-21T00:57:50;96527.69;;;4.64;100.00
9139;BME280;4604;48.616;9.548;2023-04-21T01:00:17;96529.97;;;4.68;100.00
9139;BME280;4604;48.616;9.548;2023-04-21T01:02:44;96508.25;;;4.55;100.00
9139;BME280;4604;48.616;9.548;2023-04-21T01:05:11;96519.84;;;4.64;100.00
9139;BME280;4604;48.616;9.548;2023-04-21T01:07:40;96504.50;;;4.59;100.00
9139;BME280;4604;48.616;9.548;2023-04-21T01:10:07;96489.47;;;4.50;100.00
9139;BME280;4604;48.616;9.548;2023-04-21T01:12:41;96501.97;;;4.58;100.00
9139;BME280;4604;48.616;9.548;2023-04-21T01:15:09;96486.78;;;4.52;100.00
9139;BME280;4604;48.616;9.548;2023-04-21T01:17:37;96463.44;;;4.37;100.00
9139;BME280;4604;48.616;9.548;2023-04-21T01:20:07;96470.06;;;4.41;100.00
9139;BME280;4604;48.616;9.548;2023-04-21T01:22:38;96498.28;;;4.49;100.00
9139;BME280;4604;48.616;9.548;2023-04-21T01:25:06;96498.47;;;4.46;100.00
9139;BME280;4604;48.616;9.548;2023-04-21T01:27:33;96493.25;;;4.46;100.00
9139;BME280;4604;48.616;9.548;2023-04-21T01:30:01;96491.94;;;4.40;100.00
9139;BME280;4604;48.616;9.548;2023-04-21T01:32:29;96492.16;;;4.37;100.00
9139;BME280;4604;48.616;9.548;2023-04-21T01:34:58;96506.06;;;4.38;100.00
9139;BME280;4604;48.616;9.548;2023-04-21T01:37:29;96484.59;;;4.21;100.00
9139;BME280;4604;48.616;9.548;2023-04-21T01:40:02;96501.72;;;4.25;100.00
9139;BME280;4604;48.616;9.548;2023-04-21T01:42:31;96497.31;;;4.26;100.00
9139;BME280;4604;48.616;9.548;2023-04-21T01:44:58;96496.09;;;4.19;100.00
9139;BME280;4604;48.616;9.548;2023-04-21T01:47:25;96498.09;;;4.15;100.00
9139;BME280;4604;48.616;9.548;2023-04-21T01:49:52;96498.84;;;4.17;100.00
9139;BME280;4604;48.616;9.548;2023-04-21T01:52:19;96494.53;;;4.16;100.00
9139;BME280;4604;48.616;9.548;2023-04-21T01:54:46;96480.97;;;4.11;100.00
9139;BME280;4604;48.616;9.548;2023-04-21T01:57:14;96493.13;;;4.12;100.00
9139;BME280;4604;48.616;9.548;2023-04-21T01:59:41;96488.81;;;4.11;100.00
9139;BME280;4604;48.616;9.548;2023-04-21T02:02:07;96502.81;;;4.10;100.00
9139;BME280;4604;48.616;9.548;2023-04-21T02:04:34;96479.47;;;3.96;100.00
9139;BME280;4604;48.616;9.548;2023-04-21T02:07:01;96475.09;;;3.96;100.00
9139;BME280;4604;48.616;9.548;2023-04-21T02:09:31;96453.63;;;3.80;100.00
9139;BME280;4604;48.616;9.548;2023-04-21T02:11:58;96478.84;;;3.92;100.00
9139;BME280;4604;48.616;9.548;2023-04-21T02:14:30;96462.19;;;3.82;100.00
9139;BME280;4604;48.616;9.548;2023-04-21T02:16:57;96494.50;;;3.92;100.00
9139;BME280;4604;48.616;9.548;2023-04-21T02:19:24;96500.69;;;3.91;100.00
9139;BME280;4604;48.616;9.548;2023-04-21T02:21:51;96496.50;;;3.89;100.00
9139;BME280;4604;48.616;9.548;2023-04-21T02:24:17;96472.66;;;3.69;100.00
9139;BME280;4604;48.616;9.548;2023-04-21T02:26:45;96502.38;;;3.79;100.00
9139;BME280;4604;48.616;9.548;2023-04-21T02:29:13;96504.56;;;3.73;100.00
9139;BME280;4604;48.616;9.548;2023-04-21T02:31:42;96500.41;;;3.70;100.00
9139;BME280;4604;48.616;9.548;2023-04-21T02:34:09;96501.59;;;3.66;100.00
9139;BME280;4604;48.616;9.548;2023-04-21T02:36:36;96491.56;;;3.60;100.00
9139;BME280;4604;48.616;9.548;2023-04-21T02:39:03;96496.56;;;3.63;100.00
9139;BME280;4604;48.616;9.548;2023-04-21T02:41:30;96488.53;;;3.53;100.00
9139;BME280;4604;48.616;9.548;2023-04-21T02:43:57;96472.31;;;3.37;100.00
9139;BME280;4604;48.616;9.548;2023-04-21T02:46:26;96460.94;;;3.25;100.00
9139;BME280;4604;48.616;9.548;2023-04-21T02:48:54;96492.84;;;3.41;100.00
9139;BME280;4604;48.616;9.548;2023-04-21T02:51:22;96479.81;;;3.29;100.00
9139;BME280;4604;48.616;9.548;2023-04-21T02:53:49;96499.81;;;3.41;100.00
9139;BME280;4604;48.616;9.548;2023-04-21T02:56:16;96502.03;;;3.34;100.00
9139;BME280;4604;48.616;9.548;2023-04-21T02:58:43;96509.84;;;3.34;100.00
9139;BME280;4604;48.616;9.548;2023-04-21T03:01:10;96489.63;;;3.25;100.00
9139;BME280;4604;48.616;9.548;2023-04-21T03:03:37;96487.41;;;3.19;100.00
9139;BME280;4604;48.616;9.548;2023-04-21T03:06:06;96501.72;;;3.26;100.00
9139;BME280;4604;48.616;9.548;2023-04-21T03:08:36;96487.34;;;3.08;100.00
9139;BME280;4604;48.616;9.548;2023-04-21T03:11:03;96471.16;;;3.03;100.00
9139;BME280;4604;48.616;9.548;2023-04-21T03:13:33;96481.06;;;3.10;100.00
9139;BME280;4604;48.616;9.548;2023-04-21T03:16:01;96489.28;;;3.17;100.00
9139;BME280;4604;48.616;9.548;2023-04-21T03:18:29;96486.38;;;3.09;100.00
9139;BME280;4604;48.616;9.548;2023-04-21T03:20:58;96495.66;;;3.13;100.00
9139;BME280;4604;48.616;9.548;2023-04-21T03:23:27;96490.75;;;3.08;100.00
9139;BME280;4604;48.616;9.548;2023-04-21T03:25:54;96490.84;;;3.07;100.00
9139;BME280;4604;48.616;9.548;2023-04-21T03:28:21;96452.38;;;2.85;100.00
9139;BME280;4604;48.616;9.548;2023-04-21T03:30:49;96497.41;;;2.99;100.00
9139;BME280;4604;48.616;9.548;2023-04-21T03:33:20;96501.72;;;3.00;100.00
9139;BME280;4604;48.616;9.548;2023-04-21T03:35:47;96504.19;;;3.02;100.00
9139;BME280;4604;48.616;9.548;2023-04-21T03:38:15;96485.66;;;2.94;100.00
9139;BME280;4604;48.616;9.548;2023-04-21T03:40:44;96496.59;;;2.99;100.00
9139;BME280;4604;48.616;9.548;2023-04-21T03:43:11;96512.16;;;3.00;100.00
9139;BME280;4604;48.616;9.548;2023-04-21T03:45:39;96500.66;;;3.03;100.00
9139;BME280;4604;48.616;9.548;2023-04-21T03:48:06;96500.25;;;3.09;100.00
9139;BME280;4604;48.616;9.548;2023-04-21T03:50:33;96477.44;;;3.00;100.00
9139;BME280;4604;48.616;9.548;2023-04-21T03:53:00;96512.06;;;3.15;100.00
9139;BME280;4604;48.616;9.548;2023-04-21T03:55:29;96481.59;;;3.03;100.00
9139;BME280;4604;48.616;9.548;2023-04-21T03:57:58;96477.81;;;3.07;100.00
9139;BME280;4604;48.616;9.548;2023-04-21T04:00:27;96484.00;;;3.06;100.00
9139;BME280;4604;48.616;9.548;2023-04-21T04:02:55;96501.41;;;3.18;100.00
9139;BME280;4604;48.616;9.548;2023-04-21T04:05:23;96502.03;;;3.21;100.00
9139;BME280;4604;48.616;9.548;2023-04-21T04:07:50;96487.03;;;3.12;100.00
9139;BME280;4604;48.616;9.548;2023-04-21T04:10:19;96475.13;;;3.08;100.00
9139;BME280;4604;48.616;9.548;2023-04-21T04:12:46;96514.00;;;3.24;100.00
9139;BME280;4604;48.616;9.548;2023-04-21T04:15:15;96488.06;;;3.10;100.00
9139;BME280;4604;48.616;9.548;2023-04-21T04:17:42;96503.59;;;3.11;100.00
9139;BME280;4604;48.616;9.548;2023-04-21T04:20:09;96499.72;;;3.17;100.00
9139;BME280;4604;48.616;9.548;2023-04-21T04:22:37;96505.78;;;3.17;100.00
9139;BME280;4604;48.616;9.548;2023-04-21T04:25:10;96501.63;;;3.15;100.00
9139;BME280;4604;48.616;9.548;2023-04-21T04:27:39;96507.97;;;3.24;100.00
9139;BME280;4604;48.616;9.548;2023-04-21T04:30:08;96517.34;;;3.26;100.00
9139;BME280;4604;48.616;9.548;2023-04-21T04:32:37;96514.97;;;3.23;100.00
9139;BME280;4604;48.616;9.548;2023-04-21T04:35:04;96502.31;;;3.17;100.00
9139;BME280;4604;48.616;9.548;2023-04-21T04:37:31;96529.47;;;3.27;100.00
9139;BME280;4604;48.616;9.548;2023-04-21T04:39:59;96504.63;;;3.21;100.00
9139;BME280;4604;48.616;9.548;2023-04-21T04:42:26;96509.00;;;3.21;100.00
9139;BME280;4604;48.616;9.548;2023-04-21T04:44:53;96520.28;;;3.34;100.00
9139;BME280;4604;48.616;9.548;2023-04-21T04:47:21;96528.72;;;3.38;100.00
9139;BME280;4604;48.616;9.548;2023-04-21T04:49:50;96539.69;;;3.43;100.00
9139;BME280;4604;48.616;9.548;2023-04-21T04:52:17;96522.56;;;3.39;100.00
9139;BME280;4604;48.616;9.548;2023-04-21T04:54:44;96494.09;;;3.36;100.00
9139;BME280;4604;48.616;9.548;2023-04-21T04:57:11;96519.53;;;3.58;100.00
9139;BME280;4604;48.616;9.548;2023-04-21T04:59:38;96512.53;;;3.58;100.00
9139;BME280;4604;48.616;9.548;2023-04-21T05:02:06;96502.03;;;3.47;100.00
9139;BME280;4604;48.616;9.548;2023-04-21T05:04:33;96525.69;;;3.70;100.00
9139;BME280;4604;48.616;9.548;2023-04-21T05:07:04;96525.25;;;3.76;100.00
9139;BME280;4604;48.616;9.548;2023-04-21T05:09:34;96517.00;;;3.82;100.00
9139;BME280;4604;48.616;9.548;2023-04-21T05:12:02;96493.53;;;3.69;100.00
9139;BME280;4604;48.616;9.548;2023-04-21T05:14:28;96485.59;;;3.71;100.00
9139;BME280;4604;48.616;9.548;2023-04-21T05:16:56;96502.28;;;3.81;100.00
9139;BME280;4604;48.616;9.548;2023-04-21T05:19:23;96525.50;;;3.97;100.00
9139;BME280;4604;48.616;9.548;2023-04-21T05:21:50;96536.59;;;4.00;100.00
9139;BME280;4604;48.616;9.548;2023-04-21T05:24:19;96519.47;;;3.96;100.00
9139;BME280;4604;48.616;9.548;2023-04-21T05:26:48;96516.84;;;3.96;100.00
9139;BME280;4604;48.616;9.548;2023-04-21T05:29:15;96519.41;;;4.09;100.00
9139;BME280;4604;48.616;9.548;2023-04-21T05:31:42;96529.13;;;4.20;100.00
9139;BME280;4604;48.616;9.548;2023-04-21T05:34:10;96551.75;;;4.32;100.00
9139;BME280;4604;48.616;9.548;2023-04-21T05:36:40;96558.19;;;4.39;100.00
9139;BME280;4604;48.616;9.548;2023-04-21T05:39:07;96554.06;;;4.48;100.00
9139;BME280;4604;48.616;9.548;2023-04-21T05:41:36;96541.66;;;4.39;100.00
9139;BME280;4604;48.616;9.548;2023-04-21T05:44:03;96549.00;;;4.58;100.00
9139;BME280;4604;48.616;9.548;2023-04-21T05:46:30;96538.78;;;4.55;100.00
9139;BME280;4604;48.616;9.548;2023-04-21T05:48:59;96509.78;;;4.46;100.00
9139;BME280;4604;48.616;9.548;2023-04-21T05:51:26;96509.38;;;4.64;100.00
9139;BME280;4604;48.616;9.548;2023-04-21T05:53:53;96511.97;;;4.88;100.00
9139;BME280;4604;48.616;9.548;2023-04-21T05:56:20;96516.13;;;4.90;100.00
9139;BME280;4604;48.616;9.548;2023-04-21T05:58:49;96509.34;;;4.88;100.00
9139;BME280;4604;48.616;9.548;2023-04-21T06:01:16;96480.94;;;4.83;100.00
9139;BME280;4604;48.616;9.548;2023-04-21T06:03:44;96490.09;;;4.89;100.00
9139;BME280;4604;48.616;9.548;2023-04-21T06:06:14;96487.97;;;4.94;100.00
9139;BME280;4604;48.616;9.548;2023-04-21T06:08:43;96481.56;;;4.98;100.00
9139;BME280;4604;48.616;9.548;2023-04-21T06:11:10;96473.84;;;5.08;100.00
9139;BME280;4604;48.616;9.548;2023-04-21T06:13:38;96460.06;;;5.06;100.00
9139;BME280;4604;48.616;9.548;2023-04-21T06:16:08;96460.44;;;5.12;100.00
9139;BME280;4604;48.616;9.548;2023-04-21T06:18:35;96483.00;;;5.13;100.00
9139;BME280;4604;48.616;9.548;2023-04-21T06:21:03;96507.13;;;5.06;100.00
9139;BME280;4604;48.616;9.548;2023-04-21T06:23:40;96474.03;;;4.82;100.00
9139;BME280;4604;48.616;9.548;2023-04-21T06:26:07;96481.66;;;4.97;100.00
9139;BME280;4604;48.616;9.548;2023-04-21T06:28:35;96454.00;;;4.59;100.00
9139;BME280;4604;48.616;9.548;2023-04-21T06:31:03;96492.31;;;4.71;100.00
9139;BME280;4604;48.616;9.548;2023-04-21T06:33:34;96465.13;;;4.49;100.00
9139;BME280;4604;48.616;9.548;2023-04-21T06:36:02;96482.13;;;4.55;100.00
9139;BME280;4604;48.616;9.548;2023-04-21T06:38:28;96498.63;;;4.56;100.00
9139;BME280;4604;48.616;9.548;2023-04-21T06:40:55;96506.13;;;4.49;100.00
9139;BME280;4604;48.616;9.548;2023-04-21T06:43:22;96537.34;;;4.50;100.00
9139;BME280;4604;48.616;9.548;2023-04-21T06:45:49;96508.34;;;4.42;100.00
9139;BME280;4604;48.616;9.548;2023-04-21T06:48:16;96528.75;;;4.72;100.00
9139;BME280;4604;48.616;9.548;2023-04-21T06:50:45;96505.38;;;4.47;100.00
9139;BME280;4604;48.616;9.548;2023-04-21T06:53:12;96527.19;;;4.59;100.00
9139;BME280;4604;48.616;9.548;2023-04-21T06:55:42;96521.06;;;4.71;100.00
9139;BME280;4604;48.616;9.548;2023-04-21T06:58:09;96508.81;;;4.71;100.00
9139;BME280;4604;48.616;9.548;2023-04-21T07:00:38;96513.38;;;4.92;100.00
9139;BME280;4604;48.616;9.548;2023-04-21T07:03:05;96518.66;;;5.03;100.00
9139;BME280;4604;48.616;9.548;2023-04-21T07:05:33;96516.28;;;5.11;100.00
9139;BME280;4604;48.616;9.548;2023-04-21T07:08:01;96514.88;;;5.19;100.00
9139;BME280;4604;48.616;9.548;2023-04-21T07:10:28;96499.78;;;5.22;100.00
9139;BME280;4604;48.616;9.548;2023-04-21T07:12:56;96509.69;;;5.30;100.00
9139;BME280;4604;48.616;9.548;2023-04-21T07:15:23;96505.38;;;5.18;100.00
9139;BME280;4604;48.616;9.548;2023-04-21T07:17:50;96478.47;;;5.04;100.00
9139;BME280;4604;48.616;9.548;2023-04-21T07:20:17;96483.63;;;5.17;100.00
9139;BME280;4604;48.616;9.548;2023-04-21T07:22:44;96490.53;;;5.41;100.00
9139;BME280;4604;48.616;9.548;2023-04-21T07:25:13;96489.94;;;5.60;100.00
9139;BME280;4604;48.616;9.548;2023-04-21T07:27:40;96493.03;;;5.65;100.00
9139;BME280;4604;48.616;9.548;2023-04-21T07:30:08;96498.03;;;5.79;100.00
9139;BME280;4604;48.616;9.548;2023-04-21T07:32:35;96469.00;;;5.60;100.00
9139;BME280;4604;48.616;9.548;2023-04-21T07:35:03;96498.84;;;6.02;100.00
9139;BME280;4604;48.616;9.548;2023-04-21T07:37:30;96496.94;;;6.15;100.00
9139;BME280;4604;48.616;9.548;2023-04-21T07:39:57;96510.03;;;6.15;100.00
9139;BME280;4604;48.616;9.548;2023-04-21T07:42:25;96499.88;;;6.33;100.00
9139;BME280;4604;48.616;9.548;2023-04-21T07:44:52;96506.97;;;6.54;100.00
9139;BME280;4604;48.616;9.548;2023-04-21T07:47:20;96496.03;;;6.70;100.00
9139;BME280;4604;48.616;9.548;2023-04-21T07:49:47;96479.03;;;6.64;100.00
9139;BME280;4604;48.616;9.548;2023-04-21T07:52:14;96506.19;;;6.95;100.00
9139;BME280;4604;48.616;9.548;2023-04-21T07:54:41;96501.38;;;7.21;100.00
9139;BME280;4604;48.616;9.548;2023-04-21T07:57:07;96508.47;;;7.52;100.00
9139;BME280;4604;48.616;9.548;2023-04-21T07:59:35;96501.94;;;7.77;100.00
9139;BME280;4604;48.616;9.548;2023-04-21T08:02:02;96492.13;;;7.79;100.00
9139;BME280;4604;48.616;9.548;2023-04-21T08:04:31;96500.47;;;7.93;100.00
9139;BME280;4604;48.616;9.548;2023-04-21T08:06:58;96493.19;;;8.07;100.00
9139;BME280;4604;48.616;9.548;2023-04-21T08:09:25;96500.81;;;8.10;100.00
9139;BME280;4604;48.616;9.548;2023-04-21T08:11:52;96505.69;;;8.24;100.00
9139;BME280;4604;48.616;9.548;2023-04-21T08:14:19;96496.75;;;8.46;100.00
9139;BME280;4604;48.616;9.548;2023-04-21T08:16:47;96496.91;;;8.54;100.00
9139;BME280;4604;48.616;9.548;2023-04-21T08:19:14;96510.16;;;8.43;100.00
9139;BME280;4604;48.616;9.548;2023-04-21T08:21:41;96507.00;;;8.59;100.00
9139;BME280;4604;48.616;9.548;2023-04-21T08:24:07;96498.13;;;8.60;100.00
9139;BME280;4604;48.616;9.548;2023-04-21T08:26:34;96498.16;;;8.70;100.00
9139;BME280;4604;48.616;9.548;2023-04-21T08:29:01;96505.75;;;8.92;100.00
9139;BME280;4604;48.616;9.548;2023-04-21T08:31:28;96494.16;;;8.95;100.00
9139;BME280;4604;48.616;9.548;2023-04-21T08:33:56;96495.50;;;9.09;100.00
9139;BME280;4604;48.616;9.548;2023-04-21T08:36:25;96482.63;;;9.15;100.00
9139;BME280;4604;48.616;9.548;2023-04-21T08:38:52;96496.47;;;9.64;100.00
9139;BME280;4604;48.616;9.548;2023-04-21T08:41:19;96478.00;;;9.37;100.00
9139;BME280;4604;48.616;9.548;2023-04-21T08:43:46;96466.53;;;9.56;100.00
9139;BME280;4604;48.616;9.548;2023-04-21T08:46:14;96483.72;;;9.60;100.00
9139;BME280;4604;48.616;9.548;2023-04-21T08:48:41;96477.69;;;9.77;100.00
9139;BME280;4604;48.616;9.548;2023-04-21T08:51:09;96477.78;;;9.95;100.00
9139;BME280;4604;48.616;9.548;2023-04-21T08:53:35;96474.13;;;10.24;100.00
9139;BME280;4604;48.616;9.548;2023-04-21T08:56:03;96475.47;;;10.56;99.87
9139;BME280;4604;48.616;9.548;2023-04-21T08:58:30;96471.88;;;10.57;98.64
9139;BME280;4604;48.616;9.548;2023-04-21T09:01:00;96481.00;;;10.44;99.22
9139;BME280;4604;48.616;9.548;2023-04-21T09:03:27;96468.00;;;10.87;98.40
9139;BME280;4604;48.616;9.548;2023-04-21T09:05:57;96473.97;;;10.89;96.64
9139;BME280;4604;48.616;9.548;2023-04-21T09:08:26;96465.44;;;10.95;93.13
9139;BME280;4604;48.616;9.548;2023-04-21T09:10:55;96468.66;;;11.07;95.49
9139;BME280;4604;48.616;9.548;2023-04-21T09:13:28;96457.53;;;11.21;93.46
9139;BME280;4604;48.616;9.548;2023-04-21T09:15:55;96452.16;;;11.31;91.40
9139;BME280;4604;48.616;9.548;2023-04-21T09:18:24;96462.44;;;11.34;93.37
9139;BME280;4604;48.616;9.548;2023-04-21T09:21:04;96445.00;;;11.23;95.97
9139;BME280;4604;48.616;9.548;2023-04-21T09:23:38;96453.50;;;11.09;95.74
9139;BME280;4604;48.616;9.548;2023-04-21T09:26:06;96456.97;;;11.35;98.53
9139;BME280;4604;48.616;9.548;2023-04-21T09:28:32;96465.16;;;11.50;94.57
9139;BME280;4604;48.616;9.548;2023-04-21T09:30:59;96454.00;;;11.65;95.12
9139;BME280;4604;48.616;9.548;2023-04-21T09:33:26;96461.50;;;11.77;96.25
9139;BME280;4604;48.616;9.548;2023-04-21T09:35:53;96444.53;;;11.54;93.99
9139;BME280;4604;48.616;9.548;2023-04-21T09:38:21;96456.53;;;11.74;98.03
9139;BME280;4604;48.616;9.548;2023-04-21T09:40:57;96460.31;;;11.72;96.58
9139;BME280;4604;48.616;9.548;2023-04-21T09:43:24;96462.53;;;11.85;96.00
9139;BME280;4604;48.616;9.548;2023-04-21T09:45:51;96453.53;;;12.04;97.18
9139;BME280;4604;48.616;9.548;2023-04-21T09:48:20;96460.72;;;12.28;94.82
9139;BME280;4604;48.616;9.548;2023-04-21T09:50:47;96452.44;;;12.14;96.48
9139;BME280;4604;48.616;9.548;2023-04-21T09:53:15;96454.56;;;12.19;98.52
9139;BME280;4604;48.616;9.548;2023-04-21T09:55:48;96458.81;;;12.62;94.61
9139;BME280;4604;48.616;9.548;2023-04-21T09:58:21;96452.06;;;12.68;94.27
9139;BME280;4604;48.616;9.548;2023-04-21T10:00:50;96456.50;;;12.68;93.15
9139;BME280;4604;48.616;9.548;2023-04-21T10:03:19;96462.66;;;12.93;93.86
9139;BME280;4604;48.616;9.548;2023-04-21T10:05:47;96447.09;;;12.73;94.70
9139;BME280;4604;48.616;9.548;2023-04-21T10:08:16;96453.38;;;12.97;93.99
9139;BME280;4604;48.616;9.548;2023-04-21T10:10:44;96443.75;;;12.47;95.11
9139;BME280;4604;48.616;9.548;2023-04-21T10:13:12;96430.31;;;12.40;98.66
9139;BME280;4604;48.616;9.548;2023-04-21T10:15:42;96429.03;;;12.77;100.00
9139;BME280;4604;48.616;9.548;2023-04-21T10:18:14;96425.91;;;12.81;96.62
9139;BME280;4604;48.616;9.548;2023-04-21T10:20:54;96417.28;;;13.04;96.10
9139;BME280;4604;48.616;9.548;2023-04-21T10:23:28;96416.28;;;13.13;90.71
9139;BME280;4604;48.616;9.548;2023-04-21T10:26:07;96420.25;;;13.42;92.92
9139;BME280;4604;48.616;9.548;2023-04-21T10:28:43;96418.59;;;13.33;92.61
9139;BME280;4604;48.616;9.548;2023-04-21T10:31:19;96423.63;;;13.67;88.80
9139;BME280;4604;48.616;9.548;2023-04-21T10:34:20;96418.94;;;13.85;89.75
9139;BME280;4604;48.616;9.548;2023-04-21T10:36:50;96416.28;;;14.17;86.32
9139;BME280;4604;48.616;9.548;2023-04-21T10:39:33;96414.38;;;14.02;83.32
9139;BME280;4604;48.616;9.548;2023-04-21T10:45:10;96403.50;;;14.20;87.15
9139;BME280;4604;48.616;9.548;2023-04-21T10:47:41;96393.25;;;14.17;85.52
9139;BME280;4604;48.616;9.548;2023-04-21T10:50:13;96397.03;;;14.46;82.14
9139;BME280;4604;48.616;9.548;2023-04-21T10:52:43;96391.63;;;14.39;80.24
9139;BME280;4604;48.616;9.548;2023-04-21T10:55:11;96405.56;;;14.10;81.12
9139;BME280;4604;48.616;9.548;2023-04-21T10:57:41;96399.88;;;14.44;79.71
9139;BME280;4604;48.616;9.548;2023-04-21T11:00:10;96394.38;;;14.46;82.87
9139;BME280;4604;48.616;9.548;2023-04-21T11:02:39;96398.91;;;14.68;80.23
9139;BME280;4604;48.616;9.548;2023-04-21T11:05:08;96390.91;;;14.91;80.88
9139;BME280;4604;48.616;9.548;2023-04-21T11:07:35;96390.94;;;15.21;81.34
9139;BME280;4604;48.616;9.548;2023-04-21T11:10:04;96381.78;;;15.38;80.76
9139;BME280;4604;48.616;9.548;2023-04-21T11:12:33;96393.09;;;15.55;78.04
9139;BME280;4604;48.616;9.548;2023-04-21T11:15:04;96387.13;;;15.68;77.00
9139;BME280;4604;48.616;9.548;2023-04-21T11:17:34;96384.84;;;15.80;76.73
9139;BME280;4604;48.616;9.548;2023-04-21T11:20:06;96382.53;;;15.92;75.85
9139;BME280;4604;48.616;9.548;2023-04-21T11:22:35;96358.97;;;15.89;74.43
9139;BME280;4604;48.616;9.548;2023-04-21T11:25:04;96375.06;;;16.17;75.04
9139;BME280;4604;48.616;9.548;2023-04-21T11:27:31;96351.59;;;16.05;70.88
9139;BME280;4604;48.616;9.548;2023-04-21T11:30:02;96367.94;;;16.24;70.46
9139;BME280;4604;48.616;9.548;2023-04-21T11:32:29;96360.00;;;16.09;64.70
9139;BME280;4604;48.616;9.548;2023-04-21T11:34:56;96357.38;;;15.94;64.02
9139;BME280;4604;48.616;9.548;2023-04-21T11:37:25;96365.34;;;16.09;64.53
9139;BME280;4604;48.616;9.548;2023-04-21T11:39:56;96361.56;;;16.18;63.77
9139;BME280;4604;48.616;9.548;2023-04-21T11:42:22;96362.97;;;16.14;66.02
9139;BME280;4604;48.616;9.548;2023-04-21T11:44:49;96364.53;;;16.30;66.85
9139;BME280;4604;48.616;9.548;2023-04-21T11:47:17;96360.19;;;16.44;66.38
9139;BME280;4604;48.616;9.548;2023-04-21T11:49:45;96367.16;;;16.66;64.22
9139;BME280;4604;48.616;9.548;2023-04-21T11:52:24;96364.16;;;16.76;63.35
9139;BME280;4604;48.616;9.548;2023-04-21T11:54:56;96357.09;;;16.83;63.40
9139;BME280;4604;48.616;9.548;2023-04-21T11:57:24;96362.09;;;16.93;60.90
9139;BME280;4604;48.616;9.548;2023-04-21T11:59:51;96361.50;;;16.98;59.79
9139;BME280;4604;48.616;9.548;2023-04-21T12:02:23;96364.50;;;17.16;60.15
9139;BME280;4604;48.616;9.548;2023-04-21T12:04:58;96366.41;;;17.22;62.35
9139;BME280;4604;48.616;9.548;2023-04-21T12:07:28;96356.78;;;17.28;64.86
9139;BME280;4604;48.616;9.548;2023-04-21T12:09:55;96357.41;;;17.30;64.11
9139;BME280;4604;48.616;9.548;2023-04-21T12:12:22;96358.72;;;17.41;62.77
9139;BME280;4604;48.616;9.548;2023-04-21T12:14:49;96355.66;;;17.44;61.92
9139;BME280;4604;48.616;9.548;2023-04-21T12:17:17;96361.75;;;17.66;61.01
9139;BME280;4604;48.616;9.548;2023-04-21T12:19:44;96352.38;;;17.42;62.71
9139;BME280;4604;48.616;9.548;2023-04-21T12:22:12;96356.91;;;17.48;61.64
9139;BME280;4604;48.616;9.548;2023-04-21T12:24:40;96360.72;;;17.32;62.36
9139;BME280;4604;48.616;9.548;2023-04-21T12:27:07;96355.47;;;17.45;63.34
9139;BME280;4604;48.616;9.548;2023-04-21T12:29:37;96356.66;;;17.43;61.60
9139;BME280;4604;48.616;9.548;2023-04-21T12:32:04;96355.31;;;17.53;60.22
9139;BME280;4604;48.616;9.548;2023-04-21T12:34:30;96339.44;;;17.45;59.11
9139;BME280;4604;48.616;9.548;2023-04-21T12:36:57;96343.38;;;17.49;59.92
9139;BME280;4604;48.616;9.548;2023-04-21T12:39:24;96342.63;;;17.62;60.25
9139;BME280;4604;48.616;9.548;2023-04-21T12:41:52;96336.69;;;17.67;60.58
9139;BME280;4604;48.616;9.548;2023-04-21T12:44:21;96338.34;;;17.74;60.26
9139;BME280;4604;48.616;9.548;2023-04-21T12:46:48;96329.47;;;18.02;55.87
9139;BME280;4604;48.616;9.548;2023-04-21T12:49:15;96328.88;;;17.65;55.43
9139;BME280;4604;48.616;9.548;2023-04-21T12:51:42;96327.66;;;17.68;57.05
9139;BME280;4604;48.616;9.548;2023-04-21T12:54:09;96332.28;;;17.87;59.78
9139;BME280;4604;48.616;9.548;2023-04-21T12:56:35;96314.44;;;17.94;58.68
9139;BME280;4604;48.616;9.548;2023-04-21T12:59:05;96308.13;;;18.02;58.90
9139;BME280;4604;48.616;9.548;2023-04-21T13:01:32;96321.69;;;18.14;58.97
9139;BME280;4604;48.616;9.548;2023-04-21T13:03:59;96321.94;;;18.32;54.52
9139;BME280;4604;48.616;9.548;2023-04-21T13:06:26;96316.97;;;18.09;54.75
9139;BME280;4604;48.616;9.548;2023-04-21T13:08:53;96299.69;;;18.05;58.68
9139;BME280;4604;48.616;9.548;2023-04-21T13:11:20;96311.25;;;18.26;56.71
9139;BME280;4604;48.616;9.548;2023-04-21T13:13:46;96321.13;;;18.32;58.91
9139;BME280;4604;48.616;9.548;2023-04-21T13:16:14;96314.56;;;18.34;57.34
9139;BME280;4604;48.616;9.548;2023-04-21T13:18:41;96319.88;;;18.28;56.43
9139;BME280;4604;48.616;9.548;2023-04-21T13:21:08;96310.63;;;18.17;60.03
9139;BME280;4604;48.616;9.548;2023-04-21T13:23:34;96314.72;;;18.26;59.46
9139;BME280;4604;48.616;9.548;2023-04-21T13:26:01;96307.16;;;18.36;58.63
9139;BME280;4604;48.616;9.548;2023-04-21T13:28:28;96306.94;;;18.38;58.54
9139;BME280;4604;48.616;9.548;2023-04-21T13:30:54;96303.63;;;18.36;58.05